createdAt,value
2022-09-21T00:01:28.811Z,95539.91
2022-09-21T00:04:00.150Z,95538.75
2022-09-21T00:06:30.686Z,95544.13
2022-09-21T00:08:58.468Z,95541.53
2022-09-21T00:11:28.884Z,95550.53
2022-09-21T00:14:04.468Z,95540.22
2022-09-21T00:16:32.207Z,95533.38
2022-09-21T00:19:00.653Z,95526.97
2022-09-21T00:21:28.951Z,95540.06
2022-09-21T00:23:56.082Z,95526.50
2022-09-21T00:26:26.710Z,95527.00
2022-09-21T00:28:56.208Z,95525.53
2022-09-21T00:31:24.303Z,95528.94
2022-09-21T00:33:51.841Z,95533.69
2022-09-21T00:36:22.128Z,95534.16
2022-09-21T00:38:58.980Z,95531.56
2022-09-21T00:41:27.621Z,95530.59
2022-09-21T00:44:25.493Z,95531.56
2022-09-21T00:46:58.436Z,95533.19
2022-09-21T00:49:27.342Z,95525.03
2022-09-21T00:51:56.387Z,95532.06
2022-09-21T00:54:33.494Z,95535.34
2022-09-21T00:57:02.899Z,95535.19
2022-09-21T00:59:32.786Z,95550.38
2022-09-21T01:02:00.758Z,95542.38
2022-09-21T01:04:28.416Z,95540.25
2022-09-21T01:06:58.062Z,95534.88
2022-09-21T01:09:25.926Z,95537.31
2022-09-21T01:12:33.783Z,95535.50
2022-09-21T01:15:21.670Z,95538.28
2022-09-21T01:18:42.163Z,95538.97
2022-09-21T01:21:23.793Z,95535.38
2022-09-21T01:24:21.643Z,95539.63
2022-09-21T01:27:13.408Z,95539.63
2022-09-21T01:29:52.273Z,95541.41
2022-09-21T01:32:40.954Z,95545.34
2022-09-21T01:35:57.723Z,95541.88
2022-09-21T01:38:35.638Z,95542.06
2022-09-21T01:41:06.885Z,95544.34
2022-09-21T01:43:46.342Z,95542.22
2022-09-21T01:46:18.889Z,95540.91
2022-09-21T01:48:50.751Z,95537.50
2022-09-21T01:51:20.661Z,95542.72
2022-09-21T01:54:05.416Z,95540.91
2022-09-21T01:56:42.788Z,95539.75
2022-09-21T01:59:30.944Z,95536.34
2022-09-21T02:02:09.500Z,95537.63
2022-09-21T02:04:37.394Z,95539.28
2022-09-21T02:07:04.749Z,95540.56
2022-09-21T02:09:34.059Z,95548.28
2022-09-21T02:12:02.214Z,95542.88
2022-09-21T02:14:30.086Z,95542.38
2022-09-21T02:17:47.066Z,95532.22
2022-09-21T02:20:36.533Z,95531.91
2022-09-21T02:23:26.713Z,95535.34
2022-09-21T02:26:03.625Z,95545.00
2022-09-21T02:28:38.398Z,95539.09
2022-09-21T02:31:34.519Z,95536.97
2022-09-21T02:34:20.886Z,95535.84
2022-09-21T02:37:06.996Z,95546.31
2022-09-21T02:40:00.458Z,95544.38
2022-09-21T02:42:37.783Z,95537.50
2022-09-21T02:45:15.585Z,95541.56
2022-09-21T02:48:09.560Z,95549.59
2022-09-21T02:50:44.762Z,95543.69
2022-09-21T02:53:17.250Z,95548.59
2022-09-21T02:55:46.863Z,95556.91
2022-09-21T02:58:16.742Z,95553.00
2022-09-21T03:00:44.428Z,95550.41
2022-09-21T03:03:23.390Z,95548.09
2022-09-21T03:05:54.671Z,95555.13
2022-09-21T03:08:22.402Z,95554.16
2022-09-21T03:10:50.770Z,95558.06
2022-09-21T03:13:19.019Z,95560.69
2022-09-21T03:15:47.154Z,95554.34
2022-09-21T03:18:14.142Z,95558.91
2022-09-21T03:20:48.354Z,95573.94
2022-09-21T03:23:15.457Z,95566.09
2022-09-21T03:25:45.867Z,95572.94
2022-09-21T03:28:14.422Z,95572.94
2022-09-21T03:30:42.180Z,95571.16
2022-09-21T03:33:10.019Z,95571.81
2022-09-21T03:35:37.419Z,95572.78
2022-09-21T03:38:04.398Z,95578.69
2022-09-21T03:40:32.063Z,95579.16
2022-09-21T03:42:59.240Z,95581.44
2022-09-21T03:45:29.289Z,95577.84
2022-09-21T03:48:01.854Z,95588.16
2022-09-21T03:50:30.369Z,95586.53
2022-09-21T03:52:57.649Z,95594.88
2022-09-21T03:55:25.750Z,95599.59
2022-09-21T03:57:53.594Z,95597.44
2022-09-21T04:00:21.428Z,95601.72
2022-09-21T04:02:49.951Z,95596.34
2022-09-21T04:05:17.873Z,95593.88
2022-09-21T04:07:48.373Z,95592.72
2022-09-21T04:10:22.318Z,95588.31
2022-09-21T04:12:49.205Z,95590.09
2022-09-21T04:15:21.631Z,95587.81
2022-09-21T04:17:52.128Z,95599.09
2022-09-21T04:20:20.773Z,95594.03
2022-09-21T04:22:47.885Z,95590.94
2022-09-21T04:25:15.873Z,95595.34
2022-09-21T04:27:43.203Z,95595.50
2022-09-21T04:30:16.215Z,95595.34
2022-09-21T04:32:43.955Z,95593.06
2022-09-21T04:35:11.460Z,95597.63
2022-09-21T04:37:38.732Z,95604.97
2022-09-21T04:40:07.736Z,95612.81
2022-09-21T04:42:35.362Z,95602.22
2022-09-21T04:45:02.575Z,95611.03
2022-09-21T04:47:31.502Z,95610.06
2022-09-21T04:49:58.557Z,95607.47
2022-09-21T04:52:25.890Z,95611.19
2022-09-21T04:54:53.198Z,95611.03
2022-09-21T04:57:20.570Z,95608.56
2022-09-21T04:59:47.658Z,95609.41
2022-09-21T05:02:14.671Z,95611.69
2022-09-21T05:04:41.673Z,95616.25
2022-09-21T05:07:08.773Z,95621.66
2022-09-21T05:09:54.216Z,95619.06
2022-09-21T05:12:21.198Z,95610.53
2022-09-21T05:14:48.462Z,95614.78
2022-09-21T05:17:15.464Z,95620.19
2022-09-21T05:19:42.463Z,95625.53
2022-09-21T05:22:09.500Z,95630.47
2022-09-21T05:24:36.453Z,95620.97
2022-09-21T05:27:03.670Z,95625.25
2022-09-21T05:29:31.085Z,95622.28
2022-09-21T05:32:32.104Z,95631.94
2022-09-21T05:35:11.155Z,95635.38
2022-09-21T05:37:57.703Z,95629.00
2022-09-21T05:40:25.749Z,95626.53
2022-09-21T05:42:53.143Z,95636.34
2022-09-21T05:45:21.927Z,95648.97
2022-09-21T05:48:16.570Z,95640.81
2022-09-21T05:50:53.652Z,95655.19
2022-09-21T05:53:51.244Z,95650.13
2022-09-21T05:56:54.032Z,95654.06
2022-09-21T05:59:47.020Z,95659.25
2022-09-21T06:02:39.808Z,95657.63
2022-09-21T06:05:12.493Z,95659.75
2022-09-21T06:07:39.623Z,95657.63
2022-09-21T06:10:08.059Z,95666.16
2022-09-21T06:12:35.167Z,95665.63
2022-09-21T06:15:02.397Z,95669.53
2022-09-21T06:17:29.540Z,95666.28
2022-09-21T06:19:56.643Z,95664.28
2022-09-21T06:22:23.951Z,95672.25
2022-09-21T06:24:50.915Z,95672.41
2022-09-21T06:27:18.059Z,95660.97
2022-09-21T06:29:46.469Z,95677.28
2022-09-21T06:32:13.463Z,95675.00
2022-09-21T06:34:40.447Z,95679.88
2022-09-21T06:37:07.390Z,95674.00
2022-09-21T06:39:34.424Z,95677.41
2022-09-21T06:42:01.416Z,95681.97
2022-09-21T06:44:30.005Z,95681.44
2022-09-21T06:46:57.008Z,95677.03
2022-09-21T06:49:24.141Z,95671.44
2022-09-21T06:51:51.075Z,95669.66
2022-09-21T06:54:18.554Z,95683.06
2022-09-21T06:56:46.619Z,95670.75
2022-09-21T06:59:13.855Z,95688.13
2022-09-21T07:01:41.058Z,95702.84
2022-09-21T07:04:09.366Z,95687.25
2022-09-21T07:06:36.706Z,95691.88
2022-09-21T07:11:51.029Z,95695.97
2022-09-21T07:14:18.992Z,95701.03
2022-09-21T07:16:46.479Z,95702.38
2022-09-21T07:19:13.648Z,95712.66
2022-09-21T07:21:40.825Z,95702.34
2022-09-21T07:24:11.901Z,95701.63
2022-09-21T07:26:40.062Z,95707.19
2022-09-21T07:29:07.183Z,95708.81
2022-09-21T07:31:34.351Z,95718.63
2022-09-21T07:34:01.665Z,95707.28
2022-09-21T07:36:28.681Z,95708.88
2022-09-21T07:38:55.699Z,95718.34
2022-09-21T07:41:23.459Z,95707.84
2022-09-21T07:43:50.411Z,95707.16
2022-09-21T07:46:17.420Z,95703.84
2022-09-21T07:48:44.369Z,95715.78
2022-09-21T07:51:14.693Z,95721.97
2022-09-21T07:53:46.885Z,95716.03
2022-09-21T07:56:16.857Z,95721.38
2022-09-21T07:59:04.908Z,95726.75
2022-09-21T08:01:38.958Z,95724.06
2022-09-21T08:04:11.262Z,95723.50
2022-09-21T08:06:42.210Z,95722.00
2022-09-21T08:09:10.218Z,95708.53
2022-09-21T08:11:37.687Z,95708.06
2022-09-21T08:14:05.264Z,95717.97
2022-09-21T08:16:33.997Z,95721.97
2022-09-21T08:19:02.246Z,95715.47
2022-09-21T08:21:30.668Z,95712.13
2022-09-21T08:23:57.795Z,95719.19
2022-09-21T08:26:24.840Z,95712.56
2022-09-21T08:28:53.246Z,95719.81
2022-09-21T08:31:22.391Z,95714.38
2022-09-21T08:33:50.080Z,95719.72
2022-09-21T08:36:18.494Z,95723.25
2022-09-21T08:38:45.881Z,95723.97
2022-09-21T08:41:20.118Z,95724.13
2022-09-21T08:44:07.857Z,95725.91
2022-09-21T08:46:37.238Z,95728.84
2022-09-21T08:49:11.696Z,95715.56
2022-09-21T08:51:50.037Z,95718.81
2022-09-21T08:54:37.923Z,95712.44
2022-09-21T08:57:06.251Z,95725.09
2022-09-21T08:59:35.201Z,95716.91
2022-09-21T09:02:47.863Z,95719.84
2022-09-21T09:05:55.797Z,95723.75
2022-09-21T09:08:44.757Z,95725.31
2022-09-21T09:11:41.641Z,95718.06
2022-09-21T09:15:15.968Z,95722.56
2022-09-21T09:18:04.505Z,95731.94
2022-09-21T09:20:41.658Z,95722.22
2022-09-21T09:23:27.176Z,95725.16
2022-09-21T09:26:03.852Z,95726.41
2022-09-21T09:28:42.692Z,95715.09
2022-09-21T09:31:23.530Z,95718.59
2022-09-21T09:34:11.913Z,95722.97
2022-09-21T09:37:00.542Z,95727.50
2022-09-21T09:39:31.039Z,95725.69
2022-09-21T09:42:28.445Z,95727.53
2022-09-21T09:45:15.178Z,95724.28
2022-09-21T09:48:13.425Z,95724.50
2022-09-21T09:50:41.549Z,95714.97
2022-09-21T09:53:25.435Z,95720.03
2022-09-21T09:55:58.667Z,95721.88
2022-09-21T09:58:57.549Z,95725.13
2022-09-21T10:01:46.868Z,95719.00
2022-09-21T10:04:20.176Z,95712.72
2022-09-21T10:06:47.720Z,95716.16
2022-09-21T10:09:32.443Z,95715.53
2022-09-21T10:12:17.853Z,95716.75
2022-09-21T10:14:54.744Z,95717.56
2022-09-21T10:17:24.008Z,95712.69
2022-09-21T10:20:04.153Z,95710.47
2022-09-21T10:22:31.256Z,95701.09
2022-09-21T10:25:06.036Z,95703.16
2022-09-21T10:27:37.178Z,95696.25
2022-09-21T10:30:04.849Z,95692.22
2022-09-21T10:32:32.318Z,95704.84
2022-09-21T10:35:07.669Z,95702.22
2022-09-21T10:37:41.488Z,95709.31
2022-09-21T10:40:20.746Z,95703.81
2022-09-21T10:42:59.811Z,95714.38
2022-09-21T10:45:37.195Z,95700.75
2022-09-21T10:48:17.651Z,95698.31
2022-09-21T10:50:51.120Z,95707.25
2022-09-21T10:53:29.370Z,95703.00
2022-09-21T10:56:16.624Z,95692.44
2022-09-21T10:59:23.110Z,95698.34
2022-09-21T11:01:54.006Z,95695.31
2022-09-21T11:04:46.700Z,95693.47
2022-09-21T11:07:16.515Z,95688.16
2022-09-21T11:10:10.537Z,95698.94
2022-09-21T11:12:57.740Z,95690.38
2022-09-21T11:15:38.036Z,95697.28
2022-09-21T11:18:15.040Z,95700.72
2022-09-21T11:21:06.174Z,95689.56
2022-09-21T11:24:02.740Z,95691.16
2022-09-21T11:26:44.815Z,95680.75
2022-09-21T11:29:28.052Z,95681.16
2022-09-21T11:32:26.335Z,95675.41
2022-09-21T11:35:45.261Z,95680.91
2022-09-21T11:38:25.893Z,95675.00
2022-09-21T11:41:18.573Z,95673.97
2022-09-21T11:44:16.521Z,95672.31
2022-09-21T11:47:02.996Z,95670.06
2022-09-21T11:50:29.638Z,95668.38
2022-09-21T11:53:29.088Z,95665.50
2022-09-21T11:56:11.613Z,95672.38
2022-09-21T11:59:33.116Z,95665.59
2022-09-21T12:02:37.801Z,95658.84
2022-09-21T12:05:45.924Z,95659.69
2022-09-21T12:08:45.164Z,95658.28
2022-09-21T12:11:24.391Z,95655.63
2022-09-21T12:14:19.077Z,95668.25
2022-09-21T12:17:21.240Z,95662.31
2022-09-21T12:20:24.897Z,95661.72
2022-09-21T12:23:11.240Z,95658.59
2022-09-21T12:25:45.729Z,95657.50
2022-09-21T12:28:34.894Z,95654.75
2022-09-21T12:31:12.036Z,95656.03
2022-09-21T12:34:01.324Z,95654.06
2022-09-21T12:37:15.483Z,95655.00
2022-09-21T12:40:08.043Z,95651.00
2022-09-21T12:42:55.869Z,95653.28
2022-09-21T12:45:35.725Z,95649.44
2022-09-21T12:48:29.448Z,95641.75
2022-09-21T12:51:06.426Z,95637.41
2022-09-21T12:53:40.397Z,95641.00
2022-09-21T12:56:26.623Z,95627.81
2022-09-21T12:59:05.634Z,95632.31
2022-09-21T13:01:57.192Z,95630.75
2022-09-21T13:05:18.587Z,95631.53
2022-09-21T13:08:07.244Z,95630.63
2022-09-21T13:10:44.585Z,95633.44
2022-09-21T13:13:53.161Z,95635.59
2022-09-21T13:16:32.826Z,95636.88
2022-09-21T13:19:07.389Z,95629.38
2022-09-21T13:21:34.519Z,95636.91
2022-09-21T13:24:07.914Z,95634.91
2022-09-21T13:27:06.683Z,95643.69
2022-09-21T13:29:37.208Z,95623.56
2022-09-21T13:32:14.286Z,95631.44
2022-09-21T13:34:46.954Z,95621.28
2022-09-21T13:37:20.003Z,95621.97
2022-09-21T13:40:02.408Z,95612.75
2022-09-21T13:42:32.955Z,95607.19
2022-09-21T13:45:17.852Z,95619.03
2022-09-21T13:47:51.303Z,95609.22
2022-09-21T13:50:58.094Z,95600.09
2022-09-21T13:53:33.834Z,95596.75
2022-09-21T13:56:08.967Z,95594.28
2022-09-21T13:58:53.698Z,95593.19
2022-09-21T14:01:45.625Z,95593.88
2022-09-21T14:04:25.901Z,95583.59
2022-09-21T14:06:55.210Z,95590.38
2022-09-21T14:09:31.533Z,95593.78
2022-09-21T14:12:06.427Z,95591.09
2022-09-21T14:14:39.885Z,95582.97
2022-09-21T14:17:38.278Z,95591.22
2022-09-21T14:20:37.140Z,95591.56
2022-09-21T14:23:29.149Z,95583.06
2022-09-21T14:25:58.656Z,95581.88
2022-09-21T14:28:36.377Z,95580.16
2022-09-21T14:31:16.496Z,95562.66
2022-09-21T14:33:49.317Z,95586.28
2022-09-21T14:36:23.635Z,95589.84
2022-09-21T14:39:00.450Z,95600.53
2022-09-21T14:41:41.243Z,95609.13
2022-09-21T14:44:18.828Z,95609.44
2022-09-21T14:47:05.970Z,95608.72
2022-09-21T14:49:42.096Z,95618.28
2022-09-21T14:52:49.575Z,95602.75
2022-09-21T14:55:55.170Z,95609.59
2022-09-21T14:59:16.471Z,95617.69
2022-09-21T15:02:24.021Z,95613.38
2022-09-21T15:05:25.079Z,95618.66
2022-09-21T15:08:48.085Z,95616.44
2022-09-21T15:11:29.228Z,95615.13
2022-09-21T15:14:23.884Z,95616.19
2022-09-21T15:16:52.546Z,95612.75
2022-09-21T15:19:23.702Z,95622.34
2022-09-21T15:22:17.941Z,95613.22
2022-09-21T15:24:55.541Z,95606.69
2022-09-21T15:27:33.494Z,95604.75
2022-09-21T15:30:05.304Z,95606.75
2022-09-21T15:32:44.720Z,95604.63
2022-09-21T15:35:20.420Z,95608.75
2022-09-21T15:37:48.173Z,95605.31
2022-09-21T15:40:31.998Z,95616.13
2022-09-21T15:43:16.855Z,95608.66
2022-09-21T15:46:03.036Z,95605.81
2022-09-21T15:48:34.985Z,95604.78
2022-09-21T15:51:16.946Z,95603.97
2022-09-21T15:53:53.313Z,95596.25
2022-09-21T15:56:29.568Z,95610.03
2022-09-21T15:59:11.789Z,95614.63
2022-09-21T16:01:47.670Z,95616.22
2022-09-21T16:04:27.280Z,95619.47
2022-09-21T16:07:30.328Z,95612.28
2022-09-21T16:09:57.908Z,95617.50
2022-09-21T16:12:43.617Z,95624.78
2022-09-21T16:15:31.955Z,95623.88
2022-09-21T16:18:01.957Z,95619.34
2022-09-21T16:20:44.469Z,95629.03
2022-09-21T16:23:23.290Z,95631.38
2022-09-21T16:25:58.518Z,95632.16
2022-09-21T16:28:41.423Z,95633.81
2022-09-21T16:31:30.210Z,95649.78
2022-09-21T16:34:24.803Z,95642.38
2022-09-21T16:36:53.970Z,95647.16
2022-09-21T16:39:21.770Z,95645.28
2022-09-21T16:42:02.106Z,95645.38
2022-09-21T16:44:34.669Z,95637.34
2022-09-21T16:47:04.076Z,95645.66
2022-09-21T16:49:34.896Z,95650.38
2022-09-21T16:52:02.685Z,95653.50
2022-09-21T16:54:30.742Z,95645.25
2022-09-21T16:57:00.920Z,95642.91
2022-09-21T16:59:28.761Z,95639.88
2022-09-21T17:01:58.284Z,95642.41
2022-09-21T17:04:31.729Z,95647.53
2022-09-21T17:06:59.151Z,95651.91
2022-09-21T17:09:33.969Z,95648.34
2022-09-21T17:12:02.987Z,95646.00
2022-09-21T17:14:40.898Z,95641.47
2022-09-21T17:17:24.991Z,95647.78
2022-09-21T17:19:53.897Z,95648.97
2022-09-21T17:22:21.853Z,95647.69
2022-09-21T17:24:52.310Z,95654.28
2022-09-21T17:27:26.627Z,95657.16
2022-09-21T17:29:55.416Z,95661.34
2022-09-21T17:32:24.603Z,95652.41
2022-09-21T17:35:13.799Z,95658.38
2022-09-21T17:37:40.826Z,95665.97
2022-09-21T17:40:11.151Z,95665.88
2022-09-21T17:42:48.730Z,95665.44
2022-09-21T17:45:50.476Z,95664.13
2022-09-21T17:48:22.528Z,95668.63
2022-09-21T17:50:50.498Z,95677.66
2022-09-21T17:53:36.497Z,95678.19
2022-09-21T17:56:22.129Z,95680.69
2022-09-21T17:58:58.257Z,95689.06
2022-09-21T18:01:38.866Z,95683.53
2022-09-21T18:04:08.256Z,95683.84
2022-09-21T18:06:35.672Z,95693.06
2022-09-21T18:09:03.699Z,95690.75
2022-09-21T18:11:45.253Z,95694.53
2022-09-21T18:15:03.820Z,95684.72
2022-09-21T18:18:03.390Z,95695.88
2022-09-21T18:20:54.359Z,95689.69
2022-09-21T18:23:48.420Z,95696.28
2022-09-21T18:26:17.006Z,95695.97
2022-09-21T18:28:57.371Z,95692.69
2022-09-21T18:31:52.625Z,95702.88
2022-09-21T18:34:20.155Z,95701.22
2022-09-21T18:37:12.676Z,95707.78
2022-09-21T18:40:21.809Z,95705.69
2022-09-21T18:43:30.649Z,95704.19
2022-09-21T18:46:06.507Z,95700.94
2022-09-21T18:48:50.979Z,95712.56
2022-09-21T18:52:01.413Z,95709.28
2022-09-21T18:54:28.852Z,95700.63
2022-09-21T18:56:56.445Z,95705.03
2022-09-21T18:59:25.713Z,95700.13
2022-09-21T19:01:55.744Z,95705.03
2022-09-21T19:04:23.106Z,95705.88
2022-09-21T19:07:28.415Z,95684.91
2022-09-21T19:10:11.248Z,95696.50
2022-09-21T19:12:47.581Z,95701.59
2022-09-21T19:15:18.072Z,95703.38
2022-09-21T19:18:26.865Z,95695.88
2022-09-21T19:21:40.624Z,95696.69
2022-09-21T19:24:39.211Z,95693.88
2022-09-21T19:27:40.036Z,95694.72
2022-09-21T19:30:14.260Z,95697.00
2022-09-21T19:32:47.076Z,95697.81
2022-09-21T19:35:17.091Z,95697.00
2022-09-21T19:37:44.519Z,95691.28
2022-09-21T19:40:12.678Z,95694.41
2022-09-21T19:43:10.941Z,95697.84
2022-09-21T19:46:05.557Z,95700.31
2022-09-21T19:48:43.114Z,95700.47
2022-09-21T19:51:38.551Z,95695.56
2022-09-21T19:54:35.452Z,95698.03
2022-09-21T19:57:31.701Z,95688.69
2022-09-21T20:00:00.075Z,95687.53
2022-09-21T20:02:32.573Z,95684.13
2022-09-21T20:05:23.703Z,95681.69
2022-09-21T20:08:04.564Z,95679.22
2022-09-21T20:10:54.984Z,95678.41
2022-09-21T20:13:31.115Z,95670.72
2022-09-21T20:16:26.173Z,95666.78
2022-09-21T20:19:23.490Z,95670.72
2022-09-21T20:22:00.400Z,95675.28
2022-09-21T20:24:52.099Z,95676.44
2022-09-21T20:27:29.914Z,95672.84
2022-09-21T20:29:56.948Z,95673.69
2022-09-21T20:32:24.319Z,95672.53
2022-09-21T20:34:51.678Z,95686.13
2022-09-21T20:37:19.267Z,95677.41
2022-09-21T20:39:46.544Z,95677.25
2022-09-21T20:42:24.806Z,95684.13
2022-09-21T20:44:52.593Z,95678.56
2022-09-21T20:47:20.528Z,95678.88
2022-09-21T20:49:48.496Z,95676.44
2022-09-21T20:52:16.918Z,95689.84
2022-09-21T20:54:49.105Z,95693.63
2022-09-21T20:57:18.539Z,95688.25
2022-09-21T20:59:45.583Z,95694.09
2022-09-21T21:02:14.359Z,95694.59
2022-09-21T21:04:41.484Z,95685.09
2022-09-21T21:07:08.961Z,95687.56
2022-09-21T21:09:37.396Z,95692.47
2022-09-21T21:12:04.950Z,95690.38
2022-09-21T21:14:31.832Z,95683.47
2022-09-21T21:16:58.923Z,95691.69
2022-09-21T21:19:26.232Z,95688.22
2022-09-21T21:21:53.281Z,95695.28
2022-09-21T21:24:38.551Z,95692.66
2022-09-21T21:27:06.074Z,95696.41
2022-09-21T21:29:33.568Z,95684.94
2022-09-21T21:32:01.044Z,95684.31
2022-09-21T21:34:28.305Z,95689.38
2022-09-21T21:36:55.905Z,95685.94
2022-09-21T21:39:23.017Z,95691.00
2022-09-21T21:41:49.924Z,95689.06
2022-09-21T21:44:16.823Z,95681.22
2022-09-21T21:46:44.004Z,95677.94
2022-09-21T21:49:11.352Z,95677.91
2022-09-21T21:51:38.309Z,95686.44
2022-09-21T21:54:05.739Z,95688.22
2022-09-21T21:56:32.816Z,95691.16
2022-09-21T21:59:00.171Z,95674.31
2022-09-21T22:01:29.927Z,95667.75
2022-09-21T22:04:00.336Z,95672.00
2022-09-21T22:06:30.107Z,95671.63
2022-09-21T22:08:57.880Z,95671.47
2022-09-21T22:11:27.108Z,95671.94
2022-09-21T22:13:55.305Z,95668.84
2022-09-21T22:16:25.457Z,95668.19
2022-09-21T22:18:53.567Z,95670.59
2022-09-21T22:21:22.868Z,95660.59
2022-09-21T22:23:54.404Z,95669.94
2022-09-21T22:26:22.575Z,95660.28
2022-09-21T22:28:54.461Z,95663.69
2022-09-21T22:31:26.610Z,95665.34
2022-09-21T22:33:55.646Z,95666.31
2022-09-21T22:36:29.341Z,95664.34
2022-09-21T22:38:57.489Z,95661.56
2022-09-21T22:41:28.819Z,95656.19
2022-09-21T22:43:58.149Z,95653.56
2022-09-21T22:46:27.019Z,95662.03
2022-09-21T22:48:53.979Z,95656.00
2022-09-21T22:51:22.015Z,95656.81
2022-09-21T22:53:50.681Z,95651.41
2022-09-21T22:56:21.473Z,95645.84
2022-09-21T22:58:52.388Z,95653.38
2022-09-21T23:01:35.633Z,95648.31
2022-09-21T23:04:07.378Z,95647.28
2022-09-21T23:06:37.987Z,95646.31
2022-09-21T23:09:12.060Z,95647.78
2022-09-21T23:11:43.379Z,95641.72
2022-09-21T23:14:12.325Z,95644.34
2022-09-21T23:16:39.341Z,95632.59
2022-09-21T23:19:07.217Z,95639.91
2022-09-21T23:21:34.104Z,95639.44
2022-09-21T23:24:02.809Z,95629.13
2022-09-21T23:26:32.194Z,95627.66
2022-09-21T23:29:08.891Z,95623.78
2022-09-21T23:31:36.037Z,95622.13
2022-09-21T23:34:12.556Z,95619.84
2022-09-21T23:36:41.065Z,95614.78
2022-09-21T23:39:11.669Z,95611.34
2022-09-21T23:41:39.275Z,95627.88
2022-09-21T23:44:06.411Z,95618.38
2022-09-21T23:46:36.646Z,95619.84
2022-09-21T23:49:04.114Z,95620.50
2022-09-21T23:51:31.332Z,95617.69
2022-09-21T23:54:00.131Z,95615.06
2022-09-21T23:56:28.504Z,95610.50
2022-09-21T23:58:56.140Z,95607.50
